Time;durP1;ratioP1;P1;durP2;ratioP2;P2;SDS_P1;SDS_P2;PMS_P1;PMS_P2;Temp;Humidity;BMP_temperature;BMP_pressure;BME280_temperature;BME280_humidity;BME280_pressure;Samples;Min_cycle;Max_cycle;Signal;HPM_P1;HPM_P2
2023/09/19 00:00:23;;;;;;;5.50;4.70;;;;;;;13.66;93.67;97511.65;110640;1241;70392;-61
2023/09/19 00:03:14;;;;;;;6.00;4.40;;;;;;;13.65;93.22;97509.96;110597;1243;68594;-61
2023/09/19 00:05:45;;;;;;;5.40;4.10;;;;;;;13.65;95.02;97502.11;110616;1242;68510;-61
2023/09/19 00:08:16;;;;;;;4.90;4.00;;;;;;;13.64;93.44;97501.16;110646;1249;58927;-60
2023/09/19 00:10:48;;;;;;;4.70;3.90;;;;;;;13.63;93.78;97501.06;110642;1243;58911;-60
2023/09/19 00:13:19;;;;;;;5.00;4.20;;;;;;;13.63;93.81;97497.73;110607;1239;71662;-60
2023/09/19 00:15:50;;;;;;;5.50;3.80;;;;;;;13.61;94.39;97499.31;110614;1241;69270;-60
2023/09/19 00:18:22;;;;;;;5.00;4.40;;;;;;;13.58;93.92;97501.45;110625;1241;68554;-61
2023/09/19 00:21:01;;;;;;;4.60;3.90;;;;;;;13.54;93.53;97499.16;110588;1242;58924;-62
2023/09/19 00:23:36;;;;;;;5.20;4.10;;;;;;;13.51;91.29;97497.50;110586;1238;58886;-60
2023/09/19 00:26:09;;;;;;;5.30;4.10;;;;;;;13.48;94.31;97496.49;110601;1242;69824;-63
2023/09/19 00:28:46;;;;;;;5.50;4.60;;;;;;;13.45;95.10;97489.78;110304;1242;69376;-60
2023/09/19 00:31:18;;;;;;;6.00;4.70;;;;;;;13.40;91.48;97490.86;110594;1243;69177;-60
2023/09/19 00:33:53;;;;;;;5.20;3.80;;;;;;;13.37;91.87;97495.33;110649;1244;58925;-61
2023/09/19 00:36:23;;;;;;;6.10;4.20;;;;;;;13.34;95.59;97494.73;110567;1242;58940;-61
2023/09/19 00:38:54;;;;;;;;;;;;;;;13.31;95.49;97494.48;110312;1243;69918;-60
2023/09/19 00:41:30;;;;;;;5.10;4.30;;;;;;;13.27;95.66;97496.85;110294;1245;69099;-60
2023/09/19 00:44:02;;;;;;;6.90;5.60;;;;;;;13.25;92.27;97491.76;110590;1240;69126;-60
2023/09/19 00:46:34;;;;;;;6.00;4.70;;;;;;;13.24;93.74;97491.98;110602;1244;58903;-60
2023/09/19 00:49:08;;;;;;;6.00;4.90;;;;;;;13.24;90.78;97490.94;110631;1241;58932;-60
2023/09/19 00:51:45;;;;;;;5.50;4.30;;;;;;;13.23;90.50;97486.46;110601;1243;71075;-60
2023/09/19 00:54:19;;;;;;;5.00;4.20;;;;;;;13.23;93.78;97479.70;110651;1242;69325;-61
2023/09/19 00:56:54;;;;;;;5.50;4.50;;;;;;;13.21;94.31;97478.05;110616;1241;67771;-60
2023/09/19 00:59:26;;;;;;;5.60;4.20;;;;;;;13.19;93.00;97476.48;110644;1243;58876;-60
2023/09/19 01:02:00;;;;;;;7.00;4.80;;;;;;;13.17;91.59;97468.21;110585;1240;58877;-59
2023/09/19 01:04:36;;;;;;;5.80;4.10;;;;;;;13.17;94.62;97464.92;110638;1241;70459;-60
2023/09/19 01:07:09;;;;;;;5.80;4.50;;;;;;;13.16;93.62;97463.55;110624;1242;69165;-62
2023/09/19 01:09:42;;;;;;;5.10;4.30;;;;;;;13.17;91.27;97457.02;110566;1241;69359;-61
2023/09/19 01:12:22;;;;;;;4.50;3.70;;;;;;;13.19;92.35;97456.14;110277;1242;59709;-61
2023/09/19 01:15:13;;;;;;;4.00;3.40;;;;;;;13.19;94.25;97456.73;110648;1241;59673;-62
2023/09/19 01:18:23;;;;;;;5.90;4.40;;;;;;;13.16;95.15;97455.55;110627;1243;71400;-62
2023/09/19 01:21:43;;;;;;;5.10;3.90;;;;;;;13.12;91.71;97461.98;110384;1241;69227;-60
2023/09/19 01:24:16;;;;;;;4.80;3.80;;;;;;;13.09;92.39;97456.80;109870;1249;69290;-60
2023/09/19 01:26:55;;;;;;;4.40;3.70;;;;;;;13.08;91.99;97455.36;109880;1249;59717;-60
2023/09/19 01:29:43;;;;;;;4.50;3.80;;;;;;;13.10;92.28;97447.79;110393;1249;59611;-62
2023/09/19 01:32:22;;;;;;;5.20;4.10;;;;;;;13.12;94.09;97444.48;110255;1242;71274;-62
2023/09/19 01:35:03;;;;;;;5.40;4.20;;;;;;;13.13;93.83;97440.96;110592;1241;69329;-60
2023/09/19 01:37:37;;;;;;;6.70;5.10;;;;;;;13.11;95.83;97431.60;110604;1238;69291;-60
2023/09/19 01:40:21;;;;;;;7.70;5.80;;;;;;;13.10;95.29;97424.00;110559;1240;59712;-60
2023/09/19 01:43:07;;;;;;;7.80;4.90;;;;;;;13.10;94.49;97418.04;110307;1243;59718;-59
2023/09/19 01:45:42;;;;;;;6.10;5.10;;;;;;;13.12;95.68;97415.67;110501;1247;70752;-62
2023/09/19 01:48:38;;;;;;;6.10;4.50;;;;;;;13.12;96.81;97415.50;110440;1239;68545;-62
2023/09/19 01:51:20;;;;;;;5.20;4.20;;;;;;;13.11;96.63;97410.66;110503;1241;69106;-61
2023/09/19 01:54:22;;;;;;;4.60;4.00;;;;;;;13.08;95.14;97405.13;110541;1243;59683;-62
2023/09/19 01:57:17;;;;;;;4.50;3.60;;;;;;;13.05;95.87;97406.26;110555;1242;59709;-60
2023/09/19 02:00:06;;;;;;;4.40;3.70;;;;;;;13.02;94.99;97404.77;110441;1242;71408;-60
2023/09/19 02:02:52;;;;;;;4.70;3.40;;;;;;;12.99;95.72;97402.73;110541;1241;69225;-59
2023/09/19 02:05:27;;;;;;;4.90;3.60;;;;;;;12.98;95.36;97409.98;110489;1241;69088;-60
2023/09/19 02:08:00;;;;;;;4.70;3.90;;;;;;;12.97;95.61;97410.75;110459;1242;59670;-62
2023/09/19 02:10:34;;;;;;;4.80;4.10;;;;;;;12.96;93.98;97416.73;110495;1245;60091;-62
2023/09/19 02:13:09;;;;;;;5.00;3.80;;;;;;;12.98;95.12;97417.19;110443;1243;70237;-62
2023/09/19 02:15:41;;;;;;;6.60;4.60;;;;;;;12.99;93.97;97419.34;110364;1241;69296;-62
2023/09/19 02:18:18;;;;;;;6.00;5.20;;;;;;;13.01;93.04;97414.79;110211;1247;69228;-60
2023/09/19 02:20:51;;;;;;;6.10;5.10;;;;;;;13.04;92.31;97409.85;110462;1241;59750;-60
2023/09/19 02:23:25;;;;;;;5.20;4.30;;;;;;;13.10;93.54;97409.20;110629;1238;59687;-60
2023/09/19 02:26:00;;;;;;;6.20;4.20;;;;;;;13.16;92.46;97405.36;110278;1242;71231;-61
2023/09/19 02:28:32;;;;;;;6.00;4.90;;;;;;;13.21;94.27;97402.68;110645;1243;68559;-60
2023/09/19 02:31:07;;;;;;;4.90;4.20;;;;;;;13.24;94.09;97398.38;110633;1240;69507;-60
2023/09/19 02:33:42;;;;;;;6.00;4.60;;;;;;;13.28;93.58;97393.41;110214;1242;59764;-60
2023/09/19 02:36:16;;;;;;;4.80;4.20;;;;;;;13.31;94.14;97388.41;110581;1240;59627;-61
2023/09/19 02:38:50;;;;;;;4.70;4.00;;;;;;;13.33;92.10;97383.13;110586;1240;71368;-60
2023/09/19 02:41:21;;;;;;;5.30;4.30;;;;;;;13.36;92.05;97376.05;110619;1242;68366;-59
2023/09/19 02:43:53;;;;;;;6.00;4.30;;;;;;;13.40;92.27;97372.78;110224;1243;69506;-60
2023/09/19 02:46:25;;;;;;;6.00;5.40;;;;;;;13.45;92.99;97370.20;110619;1242;59690;-60
2023/09/19 02:48:58;;;;;;;6.00;4.50;;;;;;;13.50;93.46;97367.70;110467;1242;59686;-62
2023/09/19 02:51:30;;;;;;;5.70;4.70;;;;;;;13.53;94.93;97363.91;110623;1239;71395;-59
2023/09/19 02:54:05;;;;;;;5.90;4.30;;;;;;;13.55;94.11;97352.20;110652;1244;69392;-60
2023/09/19 02:56:37;;;;;;;7.40;4.80;;;;;;;13.58;92.11;97346.35;110586;1240;68535;-62
2023/09/19 02:59:10;;;;;;;6.40;4.70;;;;;;;13.61;91.51;97339.20;110578;1239;59702;-60
2023/09/19 03:01:43;;;;;;;4.60;4.10;;;;;;;13.66;90.79;97342.52;110466;1242;59737;-60
2023/09/19 03:04:19;;;;;;;5.20;4.50;;;;;;;13.70;92.29;97342.34;110621;1240;71274;-60
2023/09/19 03:06:53;;;;;;;5.30;4.80;;;;;;;13.72;90.94;97334.27;110251;1242;67432;-60
2023/09/19 03:09:25;;;;;;;6.80;5.50;;;;;;;13.74;89.56;97340.20;110285;1244;68647;-58
2023/09/19 03:11:56;;;;;;;5.70;5.10;;;;;;;13.78;89.70;97335.48;110249;1245;59717;-61
2023/09/19 03:14:30;;;;;;;5.60;4.90;;;;;;;13.82;90.50;97330.93;110586;1242;59733;-60
2023/09/19 03:17:00;;;;;;;5.80;4.90;;;;;;;13.85;89.58;97335.23;110255;1242;71432;-60
2023/09/19 03:19:34;;;;;;;4.70;4.20;;;;;;;13.89;88.74;97333.33;110262;1239;68305;-62
2023/09/19 03:22:07;;;;;;;6.40;5.20;;;;;;;13.92;89.00;97335.16;110237;1244;68522;-60
2023/09/19 03:24:38;;;;;;;7.20;4.70;;;;;;;13.95;88.57;97329.83;110221;1244;59678;-60
2023/09/19 03:27:13;;;;;;;4.90;4.30;;;;;;;13.98;88.78;97337.20;110267;1243;59740;-60
2023/09/19 03:29:45;;;;;;;5.10;4.40;;;;;;;14.00;89.97;97335.34;110632;1241;70683;-62
2023/09/19 03:32:20;;;;;;;4.40;3.80;;;;;;;14.02;88.89;97336.72;110278;1244;69246;-60
2023/09/19 03:34:50;;;;;;;5.60;4.20;;;;;;;14.03;89.97;97339.42;110225;1242;69460;-62
2023/09/19 03:37:21;;;;;;;4.50;3.90;;;;;;;14.06;90.14;97337.09;110236;1242;59705;-61
2023/09/19 03:39:51;;;;;;;4.50;3.90;;;;;;;14.08;90.47;97333.37;110272;1242;59697;-60
2023/09/19 03:42:25;;;;;;;6.80;4.50;;;;;;;14.12;88.19;97334.66;110279;1242;71383;-60
2023/09/19 03:44:55;;;;;;;5.50;4.00;;;;;;;14.15;88.38;97333.98;110570;1238;69122;-60
2023/09/19 03:47:25;;;;;;;5.10;4.20;;;;;;;14.20;88.56;97332.88;110574;1244;69297;-62
2023/09/19 03:49:56;;;;;;;4.60;3.80;;;;;;;14.22;89.04;97328.23;110580;1238;60012;-60
2023/09/19 03:52:26;;;;;;;5.00;4.30;;;;;;;14.26;88.44;97328.81;110558;1241;59726;-60
2023/09/19 03:54:56;;;;;;;5.60;4.60;;;;;;;14.29;87.40;97331.20;110644;1240;71247;-61
2023/09/19 03:57:26;;;;;;;4.50;3.80;;;;;;;14.32;86.80;97331.06;110603;1243;69252;-60
2023/09/19 03:59:57;;;;;;;4.80;4.30;;;;;;;14.35;87.84;97331.55;110620;1241;68727;-62
2023/09/19 04:02:32;;;;;;;5.20;4.20;;;;;;;14.38;88.05;97330.21;110623;1242;59745;-60
2023/09/19 04:05:03;;;;;;;5.10;4.30;;;;;;;14.43;87.89;97325.05;110529;1238;59674;-61
2023/09/19 04:07:34;;;;;;;5.00;4.20;;;;;;;14.46;86.61;97320.01;110595;1238;70634;-61
2023/09/19 04:10:06;;;;;;;4.90;3.90;;;;;;;14.48;86.98;97319.12;110591;1241;69284;-61
2023/09/19 04:12:36;;;;;;;4.70;3.70;;;;;;;14.52;87.22;97324.80;110246;1238;69886;-61
2023/09/19 04:15:08;;;;;;;5.50;4.00;;;;;;;14.54;86.81;97326.15;110455;1241;59737;-59
2023/09/19 04:17:37;;;;;;;4.50;3.90;;;;;;;14.56;87.47;97320.59;110513;1240;59713;-59
2023/09/19 04:20:08;;;;;;;5.10;4.30;;;;;;;14.58;87.51;97319.65;110290;1245;72036;-60
2023/09/19 04:22:37;;;;;;;4.70;4.10;;;;;;;14.61;86.14;97321.66;110281;1243;68113;-59
2023/09/19 04:25:08;;;;;;;4.60;4.00;;;;;;;14.64;85.52;97317.87;110425;1241;70188;-60
2023/09/19 04:27:38;;;;;;;5.00;3.90;;;;;;;14.67;85.71;97306.55;110394;1238;59723;-62
2023/09/19 04:30:11;;;;;;;5.30;4.10;;;;;;;14.69;85.78;97309.16;110465;1238;59734;-59
2023/09/19 04:32:41;;;;;;;4.70;4.00;;;;;;;14.71;85.49;97305.37;110597;1240;71507;-60
2023/09/19 04:35:11;;;;;;;5.00;4.10;;;;;;;14.72;85.76;97300.67;110373;1241;69720;-62
2023/09/19 04:37:41;;;;;;;5.00;3.90;;;;;;;14.74;85.91;97299.95;110453;1241;69889;-60
2023/09/19 04:40:12;;;;;;;4.60;3.90;;;;;;;14.75;88.56;97302.37;110535;1241;59663;-61
2023/09/19 04:42:43;;;;;;;4.50;3.80;;;;;;;14.75;88.42;97308.80;110562;1240;59678;-62
2023/09/19 04:45:12;;;;;;;;;;;;;;;14.78;87.24;97312.73;110411;1241;71350;-62
2023/09/19 04:47:43;;;;;;;4.10;3.30;;;;;;;14.79;87.33;97319.48;110513;1241;69707;-61
2023/09/19 04:50:14;;;;;;;4.30;3.50;;;;;;;14.82;86.86;97318.36;110389;1242;69120;-62
2023/09/19 04:52:45;;;;;;;4.10;3.70;;;;;;;14.84;87.32;97319.98;110583;1242;59689;-60
2023/09/19 04:55:18;;;;;;;3.80;3.10;;;;;;;14.86;86.31;97322.73;110619;1241;59646;-62
2023/09/19 04:57:52;;;;;;;5.30;4.00;;;;;;;14.88;86.76;97322.67;110608;1241;71498;-61
2023/09/19 05:00:24;;;;;;;3.90;3.50;;;;;;;14.92;87.55;97326.77;110580;1243;69294;-62
2023/09/19 05:02:57;;;;;;;6.10;4.20;;;;;;;14.94;87.13;97322.73;110627;1242;68414;-60
2023/09/19 05:05:28;;;;;;;4.40;3.90;;;;;;;14.97;86.18;97318.73;110602;1241;59673;-58
2023/09/19 05:07:59;;;;;;;5.30;4.50;;;;;;;15.02;85.09;97316.14;110632;1241;59628;-60
2023/09/19 05:10:37;;;;;;;4.80;4.10;;;;;;;15.07;84.34;97316.71;110552;1241;71311;-59
2023/09/19 05:13:10;;;;;;;6.10;4.40;;;;;;;15.14;85.23;97313.48;110585;1238;68405;-61
2023/09/19 05:15:41;;;;;;;7.70;4.40;;;;;;;15.21;84.80;97310.89;110419;1238;69298;-62
2023/09/19 05:18:10;;;;;;;7.50;5.70;;;;;;;15.27;87.96;97309.02;110381;1241;59698;-62
2023/09/19 05:20:40;;;;;;;6.90;6.30;;;;;;;15.35;87.00;97300.08;110490;1241;59740;-61
2023/09/19 05:23:13;;;;;;;6.10;4.40;;;;;;;15.43;85.05;97299.87;110477;1239;70548;-59
2023/09/19 05:25:44;;;;;;;5.50;4.10;;;;;;;15.51;85.48;97296.98;110461;1243;69817;-62
2023/09/19 05:28:15;;;;;;;6.10;4.60;;;;;;;15.61;86.49;97290.86;110392;1241;68508;-61
2023/09/19 05:30:44;;;;;;;5.60;4.80;;;;;;;15.71;84.16;97287.39;110405;1238;59747;-62
2023/09/19 05:33:18;;;;;;;5.80;4.50;;;;;;;15.79;83.51;97295.64;110352;1241;59676;-60
2023/09/19 05:35:50;;;;;;;5.40;4.50;;;;;;;15.88;83.92;97294.23;110363;1243;70598;-62
2023/09/19 05:38:20;;;;;;;6.60;5.10;;;;;;;15.96;85.21;97291.70;110548;1244;69859;-60
2023/09/19 05:40:50;;;;;;;6.00;5.20;;;;;;;16.01;82.49;97285.94;110519;1238;69268;-60
2023/09/19 05:43:19;;;;;;;5.10;4.60;;;;;;;16.06;81.67;97290.71;110614;1241;59677;-60
2023/09/19 05:45:52;;;;;;;5.60;4.70;;;;;;;16.09;82.95;97287.49;110624;1241;59682;-61
2023/09/19 05:48:22;;;;;;;6.90;5.20;;;;;;;16.13;84.45;97284.58;110582;1241;71458;-60
2023/09/19 05:50:52;;;;;;;5.30;4.20;;;;;;;16.19;83.12;97274.63;110564;1240;68358;-61
2023/09/19 05:53:23;;;;;;;5.00;4.50;;;;;;;16.24;83.38;97269.06;110590;1242;69672;-60
2023/09/19 05:55:53;;;;;;;5.10;4.60;;;;;;;16.29;82.26;97271.03;110581;1241;59706;-61
2023/09/19 05:58:23;;;;;;;4.80;4.20;;;;;;;16.32;81.05;97269.18;110477;1241;59734;-59
2023/09/19 06:00:53;;;;;;;6.30;4.50;;;;;;;16.33;81.44;97268.10;110512;1241;70631;-60
2023/09/19 06:03:22;;;;;;;5.00;4.50;;;;;;;16.29;82.67;97264.84;110611;1241;69089;-60
2023/09/19 06:05:57;;;;;;;5.30;4.50;;;;;;;16.32;81.58;97262.36;110574;1238;69911;-60
2023/09/19 06:08:28;;;;;;;6.30;4.60;;;;;;;16.32;81.08;97259.71;110559;1240;59735;-60
2023/09/19 06:10:58;;;;;;;5.60;4.60;;;;;;;16.30;81.93;97256.84;110610;1238;59773;-60
2023/09/19 06:13:33;;;;;;;7.40;5.40;;;;;;;16.30;81.19;97252.61;110599;1242;71000;-60
2023/09/19 06:16:05;;;;;;;7.00;5.30;;;;;;;16.31;81.49;97255.58;110555;1241;69214;-61
2023/09/19 06:18:34;;;;;;;7.90;6.40;;;;;;;16.33;82.00;97257.19;110336;1241;69242;-62
2023/09/19 06:21:07;;;;;;;;;;;;;;;16.33;81.26;97256.96;110308;1241;59731;-61
2023/09/19 06:23:37;;;;;;;7.10;6.00;;;;;;;16.33;80.77;97258.77;110314;1241;59678;-62
2023/09/19 06:26:08;;;;;;;;;;;;;;;16.33;80.41;97263.55;110375;1242;70563;-62
2023/09/19 06:28:37;;;;;;;6.80;5.20;;;;;;;16.36;81.72;97264.39;110336;1239;68313;-61
2023/09/19 06:31:09;;;;;;;6.40;5.30;;;;;;;16.40;80.08;97266.41;110333;1242;69285;-62
2023/09/19 06:33:39;;;;;;;6.40;5.40;;;;;;;16.44;79.92;97269.80;110399;1241;59677;-62
2023/09/19 06:36:09;;;;;;;7.10;5.60;;;;;;;16.47;79.41;97266.96;110336;1241;59689;-61
2023/09/19 06:38:38;;;;;;;7.30;5.00;;;;;;;16.49;78.61;97266.42;110335;1240;71951;-61
2023/09/19 06:41:09;;;;;;;5.50;4.70;;;;;;;16.55;78.55;97269.84;110317;1241;69272;-62
2023/09/19 06:43:39;;;;;;;5.80;4.60;;;;;;;16.59;77.53;97268.25;110321;1241;69272;-61
2023/09/19 06:46:09;;;;;;;5.20;4.50;;;;;;;16.64;77.43;97272.98;110230;1249;59751;-61
2023/09/19 06:48:39;;;;;;;5.00;4.50;;;;;;;16.71;77.09;97275.47;110252;1241;59701;-60
2023/09/19 06:51:09;;;;;;;6.20;4.90;;;;;;;16.79;76.86;97274.71;110254;1241;71937;-58
2023/09/19 06:53:40;;;;;;;5.80;4.50;;;;;;;16.88;76.92;97270.69;110234;1242;69121;-61
2023/09/19 06:56:09;;;;;;;6.00;4.40;;;;;;;16.96;76.46;97265.99;110249;1240;68750;-61
2023/09/19 06:58:39;;;;;;;6.20;5.00;;;;;;;17.03;75.97;97262.84;110281;1241;59670;-61
2023/09/19 07:01:09;;;;;;;5.60;4.60;;;;;;;17.10;76.13;97266.88;110243;1241;59678;-63
2023/09/19 07:03:38;;;;;;;6.90;6.20;;;;;;;17.15;75.58;97267.73;110279;1241;71928;-63
2023/09/19 07:06:09;;;;;;;5.80;5.00;;;;;;;17.20;74.91;97266.90;109851;1240;508631;-60
2023/09/19 07:08:38;;;;;;;5.50;4.40;;;;;;;17.24;74.83;97270.65;110232;1242;69287;-60
2023/09/19 07:11:07;;;;;;;6.10;4.80;;;;;;;17.31;74.42;97270.85;110213;1239;59732;-60
2023/09/19 07:13:38;;;;;;;5.40;4.60;;;;;;;17.35;74.07;97271.52;110294;1242;59670;-61
2023/09/19 07:16:10;;;;;;;6.60;4.80;;;;;;;17.43;74.88;97276.13;110252;1240;71965;-62
2023/09/19 07:18:39;;;;;;;6.10;4.60;;;;;;;17.50;73.67;97278.91;110279;1241;69185;-62
2023/09/19 07:21:10;;;;;;;6.40;5.00;;;;;;;17.54;74.24;97277.67;110287;1241;69291;-61
2023/09/19 07:23:39;;;;;;;7.10;5.30;;;;;;;17.61;73.62;97280.81;110252;1240;59707;-60
2023/09/19 07:26:09;;;;;;;6.50;5.60;;;;;;;17.66;73.41;97282.22;110356;1241;59691;-61
2023/09/19 07:28:39;;;;;;;6.50;5.20;;;;;;;17.73;72.36;97284.17;110352;1241;71436;-60
2023/09/19 07:31:09;;;;;;;5.40;4.60;;;;;;;17.81;72.59;97282.77;110353;1241;69909;-61
2023/09/19 07:33:40;;;;;;;5.30;4.50;;;;;;;17.91;72.84;97285.52;110341;1241;69857;-61
2023/09/19 07:36:16;;;;;;;7.10;4.10;;;;;;;17.99;71.70;97284.31;110340;1241;59753;-60
2023/09/19 07:38:45;;;;;;;5.20;4.00;;;;;;;18.10;71.85;97281.54;110364;1241;59678;-62
2023/09/19 07:41:15;;;;;;;5.20;4.20;;;;;;;18.21;71.94;97277.19;110306;1241;72426;-60
2023/09/19 07:43:44;;;;;;;5.90;4.20;;;;;;;18.30;71.93;97272.70;110274;1241;69283;-60
2023/09/19 07:46:14;;;;;;;7.70;5.00;;;;;;;18.38;71.37;97265.91;110271;1242;69856;-60
2023/09/19 07:48:48;;;;;;;4.80;4.30;;;;;;;18.44;71.27;97267.33;110289;1240;59738;-61
2023/09/19 07:51:18;;;;;;;4.80;4.10;;;;;;;18.54;71.34;97273.34;110292;1241;59670;-60
2023/09/19 07:53:48;;;;;;;;;;;;;;;18.67;70.68;97279.39;110312;1241;72125;-61
2023/09/19 07:56:20;;;;;;;5.30;3.90;;;;;;;18.78;69.99;97277.23;110337;1240;69388;-60
2023/09/19 07:58:49;;;;;;;5.70;4.20;;;;;;;18.86;68.56;97272.77;110318;1242;69854;-61
2023/09/19 08:01:18;;;;;;;5.50;4.40;;;;;;;18.96;68.86;97270.90;110287;1241;59728;-59
2023/09/19 08:03:48;;;;;;;5.40;4.80;;;;;;;19.11;68.79;97272.14;110282;1244;59740;-62
2023/09/19 08:06:19;;;;;;;4.80;4.20;;;;;;;19.23;68.24;97272.38;110335;1241;71464;-60
2023/09/19 08:08:53;;;;;;;5.90;4.90;;;;;;;19.37;68.18;97274.33;110363;1240;69777;-60
2023/09/19 08:11:24;;;;;;;5.20;4.60;;;;;;;19.48;66.46;97277.23;110282;1242;69835;-60
2023/09/19 08:13:53;;;;;;;4.90;4.20;;;;;;;19.58;67.55;97277.82;110256;1241;59745;-59
2023/09/19 08:16:24;;;;;;;6.00;5.20;;;;;;;19.67;66.29;97281.81;110309;1242;59694;-60
2023/09/19 08:18:55;;;;;;;6.20;4.70;;;;;;;19.63;65.44;97282.21;110307;1241;71968;-60
2023/09/19 08:21:25;;;;;;;5.70;5.10;;;;;;;19.58;66.01;97279.89;110166;1240;68591;-62
2023/09/19 08:23:56;;;;;;;6.70;5.00;;;;;;;19.58;66.46;97279.45;110324;1241;69919;-60
2023/09/19 08:26:25;;;;;;;5.60;5.00;;;;;;;19.54;66.23;97282.29;110261;1241;59712;-59
2023/09/19 08:28:55;;;;;;;4.80;4.20;;;;;;;19.53;66.45;97282.70;110265;1241;59670;-61
2023/09/19 08:31:25;;;;;;;5.10;4.00;;;;;;;19.50;66.06;97286.02;110272;1247;72003;-61
2023/09/19 08:33:55;;;;;;;5.70;4.20;;;;;;;19.49;66.40;97287.84;110302;1241;69259;-60
2023/09/19 08:36:25;;;;;;;4.90;4.30;;;;;;;19.49;66.53;97293.58;110280;1241;68794;-62
2023/09/19 08:38:55;;;;;;;;;;;;;;;19.46;66.47;97293.48;110241;1249;60160;-60
2023/09/19 08:41:24;;;;;;;6.10;4.80;;;;;;;19.44;66.35;97294.25;110260;1241;59638;-60
2023/09/19 08:43:54;;;;;;;6.00;5.10;;;;;;;19.43;66.48;97296.52;110384;1242;71986;-61
2023/09/19 08:46:30;;;;;;;5.60;4.80;;;;;;;19.39;66.54;97299.47;110295;1240;69210;-60
2023/09/19 08:49:05;;;;;;;6.50;5.10;;;;;;;19.40;66.85;97304.80;110330;1248;69777;-60
2023/09/19 08:52:16;;;;;;;5.30;4.80;;;;;;;19.42;66.54;97307.72;110350;1241;59815;-61
2023/09/19 08:54:49;;;;;;;6.00;5.00;;;;;;;19.50;66.85;97312.36;110394;1241;59711;-62
2023/09/19 08:57:22;;;;;;;5.80;4.40;;;;;;;19.55;66.56;97318.61;110343;1240;71862;-62
2023/09/19 08:59:52;;;;;;;5.10;4.40;;;;;;;19.67;66.68;97326.33;110336;1240;68545;-60
2023/09/19 09:02:23;;;;;;;5.90;4.20;;;;;;;19.81;66.46;97326.39;110437;1240;69677;-61
2023/09/19 09:04:54;;;;;;;5.10;4.40;;;;;;;19.96;65.56;97325.95;110367;1240;59685;-61
2023/09/19 09:07:24;;;;;;;6.00;4.90;;;;;;;20.09;65.53;97321.48;110359;1241;59707;-60
2023/09/19 09:09:55;;;;;;;5.90;4.80;;;;;;;20.07;64.29;97324.02;110304;1240;70357;-59
2023/09/19 09:12:25;;;;;;;5.50;4.60;;;;;;;20.06;64.66;97323.05;110309;1241;69410;-60
2023/09/19 09:14:57;;;;;;;5.40;4.30;;;;;;;20.16;65.44;97321.39;110279;1239;70063;-60
2023/09/19 09:17:26;;;;;;;6.60;5.20;;;;;;;20.32;65.09;97324.35;110217;1241;59726;-60
2023/09/19 09:19:56;;;;;;;7.80;5.50;;;;;;;20.33;63.99;97328.05;110323;1241;59634;-60
2023/09/19 09:22:26;;;;;;;7.50;5.40;;;;;;;20.48;64.13;97328.84;110327;1241;71970;-59
2023/09/19 09:25:04;;;;;;;6.10;5.40;;;;;;;20.53;63.31;97335.97;110325;1242;70168;-62
2023/09/19 09:27:34;;;;;;;6.60;5.90;;;;;;;20.59;63.45;97341.48;110295;1241;69897;-59
2023/09/19 09:30:04;;;;;;;9.30;7.40;;;;;;;20.54;62.53;97346.05;110250;1241;59744;-60
2023/09/19 09:32:35;;;;;;;7.70;6.90;;;;;;;20.51;62.57;97346.43;110223;1241;59637;-59
2023/09/19 09:35:14;;;;;;;6.50;5.70;;;;;;;20.52;63.29;97347.42;110221;1241;72355;-59
2023/09/19 09:37:44;;;;;;;7.30;6.10;;;;;;;20.47;65.00;97354.00;110290;1240;69231;-60
2023/09/19 09:42:52;;;;;;;7.80;5.70;;;;;;;20.25;63.74;97359.06;110302;1241;60063;-62
2023/09/19 09:45:36;;;;;;;8.70;6.00;;;;;;;20.14;63.84;97366.05;110334;1241;59679;-63
2023/09/19 09:48:14;;;;;;;6.60;5.50;;;;;;;20.05;64.99;97368.27;110351;1242;71334;-62
2023/09/19 09:53:26;;;;;;;6.70;6.10;;;;;;;19.82;65.25;97379.66;110365;1241;69167;-61
2023/09/19 09:55:59;;;;;;;7.80;6.10;;;;;;;19.88;65.25;97384.55;110269;1242;59750;-59
2023/09/19 09:58:29;;;;;;;6.00;5.40;;;;;;;19.74;65.25;97383.88;110294;1241;59636;-60
2023/09/19 10:01:08;;;;;;;;;;;;;;;19.53;67.04;97388.80;110343;1241;71439;-60
2023/09/19 10:03:47;;;;;;;7.30;6.40;;;;;;;19.59;67.56;97389.68;110329;1241;69829;-59
2023/09/19 10:11:45;;;;;;;6.40;5.30;;;;;;;19.07;77.51;97396.33;110284;1241;59689;-60
2023/09/19 10:14:23;;;;;;;5.60;4.60;;;;;;;19.07;78.29;97397.95;110336;1241;71987;-62
2023/09/19 10:17:00;;;;;;;5.90;4.80;;;;;;;19.02;75.49;97400.89;110320;1242;69791;-60
2023/09/19 10:19:36;;;;;;;5.30;4.60;;;;;;;18.93;76.24;97408.99;110312;1244;69651;-59
2023/09/19 10:22:08;;;;;;;4.70;4.20;;;;;;;18.79;80.20;97408.51;110316;1241;59715;-61
2023/09/19 10:24:39;;;;;;;7.20;4.70;;;;;;;18.68;80.77;97410.69;110239;1241;59640;-59
2023/09/19 10:27:29;;;;;;;5.30;4.60;;;;;;;18.51;88.47;97413.70;110260;1241;71512;-59
2023/09/19 10:29:59;;;;;;;6.30;4.90;;;;;;;18.41;92.62;97416.43;110231;1242;69200;-60
2023/09/19 10:32:33;;;;;;;6.50;4.90;;;;;;;18.32;95.27;97413.75;110258;1242;69284;-60
2023/09/19 10:35:05;;;;;;;5.70;5.00;;;;;;;18.23;98.40;97410.70;110227;1241;60120;-62
2023/09/19 10:37:37;;;;;;;8.50;7.00;;;;;;;18.10;100.00;97411.51;110335;1240;59770;-62
2023/09/19 10:40:12;;;;;;;9.20;7.40;;;;;;;17.97;92.22;97410.00;110246;1239;71676;-61
2023/09/19 10:42:43;;;;;;;9.60;7.90;;;;;;;17.83;89.34;97411.48;110289;1241;69795;-58
2023/09/19 10:45:15;;;;;;;6.70;5.60;;;;;;;17.66;90.39;97409.45;110275;1239;69204;-61
2023/09/19 10:47:44;;;;;;;6.20;5.30;;;;;;;17.61;89.96;97407.65;110311;1241;59672;-61
2023/09/19 10:50:24;;;;;;;6.00;4.90;;;;;;;17.57;89.63;97409.12;110373;1248;59663;-59
2023/09/19 10:53:04;;;;;;;7.60;6.00;;;;;;;17.53;90.96;97411.66;110349;1240;71950;-60
2023/09/19 10:55:38;;;;;;;7.30;6.00;;;;;;;17.43;90.03;97411.63;110289;1239;69057;-60
2023/09/19 10:58:14;;;;;;;8.20;6.80;;;;;;;17.35;88.70;97404.83;110289;1240;69867;-60
2023/09/19 11:00:55;;;;;;;9.10;6.60;;;;;;;17.26;90.22;97403.63;110327;1242;59692;-61
2023/09/19 11:03:30;;;;;;;6.50;5.30;;;;;;;17.17;90.28;97403.30;110324;1242;59684;-60
2023/09/19 11:06:05;;;;;;;8.20;5.40;;;;;;;17.12;91.09;97397.33;110339;1242;71990;-62
2023/09/19 11:08:57;;;;;;;6.10;5.20;;;;;;;17.08;92.07;97396.33;110320;1241;68705;-59
2023/09/19 11:11:42;;;;;;;6.30;5.20;;;;;;;17.07;89.44;97386.85;110238;1241;68305;-60
2023/09/19 11:14:26;;;;;;;6.30;5.50;;;;;;;17.08;92.48;97385.04;110274;1241;59656;-60
2023/09/19 11:17:11;;;;;;;7.20;6.10;;;;;;;17.10;91.62;97378.64;110309;1241;59628;-62
2023/09/19 11:25:31;;;;;;;8.30;6.70;;;;;;;17.11;93.27;97366.64;110318;1241;69372;-61
2023/09/19 11:28:08;;;;;;;9.20;7.90;;;;;;;17.05;94.80;97363.98;110374;1239;59673;-61
2023/09/19 11:30:39;;;;;;;9.10;8.00;;;;;;;16.95;95.78;97355.98;110293;1241;59728;-60
2023/09/19 11:33:37;;;;;;;9.90;7.20;;;;;;;16.87;96.50;97351.02;110277;1241;71403;-61
2023/09/19 11:36:19;;;;;;;7.40;6.30;;;;;;;16.83;97.64;97343.82;110299;1241;69799;-62
2023/09/19 11:38:50;;;;;;;8.00;7.00;;;;;;;16.79;98.75;97347.34;110252;1241;69928;-60
2023/09/19 11:44:16;;;;;;;7.40;6.50;;;;;;;16.81;99.57;97361.11;110339;1241;59637;-61
2023/09/19 11:46:52;;;;;;;9.70;7.80;;;;;;;16.84;100.00;97357.67;110284;1241;71281;-60
2023/09/19 11:49:32;;;;;;;8.90;7.50;;;;;;;16.85;100.00;97351.90;110326;1241;69074;-61
2023/09/19 11:52:08;;;;;;;7.60;6.80;;;;;;;16.85;100.00;97351.27;110246;1240;69254;-61
2023/09/19 11:54:41;;;;;;;10.90;8.30;;;;;;;16.84;100.00;97345.60;110287;1241;59738;-60
2023/09/19 11:57:12;;;;;;;8.20;7.30;;;;;;;16.82;100.00;97341.80;110347;1240;59754;-60
2023/09/19 11:59:40;;;;;;;;;;;;;;;16.84;100.00;97343.23;110262;1240;71458;-60
2023/09/19 12:02:31;;;;;;;9.20;7.80;;;;;;;16.87;100.00;97340.17;110328;1241;69913;-60
2023/09/19 12:05:00;;;;;;;10.00;7.70;;;;;;;16.91;100.00;97333.71;110267;1241;69089;-61
2023/09/19 12:07:30;;;;;;;8.80;7.60;;;;;;;16.96;100.00;97320.42;110321;1241;59751;-60
2023/09/19 12:10:08;;;;;;;8.30;7.20;;;;;;;16.98;100.00;97309.58;110193;1241;59736;-62
2023/09/19 12:12:37;;;;;;;8.90;7.90;;;;;;;16.99;100.00;97314.30;110280;1241;71943;-61
2023/09/19 12:15:07;;;;;;;8.30;7.50;;;;;;;17.03;100.00;97320.02;110314;1241;69075;-61